Terminal Aerodrome Forecast
Issued by NWS

Home | Current Version | Previous Version | Text Only | Print | Product List | Glossary On
Versions: 1 2 3 4 5 6 7 8 9 10 11 12 13 14 15
217
FTPA31 PHFO 070540
TAFHTO
TAF
PHTO 070540Z 0706/0806 VRB05KT P6SM SCT025 BKN045
     FM070700 23004KT P6SM FEW025 SCT050
     FM071700 VRB05KT P6SM VCSH SCT022 BKN045
     FM071900 32015KT P6SM VCSH SCT015 OVC025=

USA.gov is the U.S. government's official web portal to all federal, state and local government web resources and services.